Eldon, Washington
Current Conditions -  °F | °C
As of 4:53 AM on Friday 24 Oct 2014 (Local Time) from KSHN Reporting Station
Broken Clouds Broken Clouds  
Wind Chill: 47°   Ceiling: 2900
Heat Index: 47°   Visibility: 7mi
Dew Point: 46°   Wind: 0mph
Humidity: 97%   Direction: NA
Pressure: 29.99"   Gusts: NA
Location:  47.5561°N, 123.25°W
Report Text: KSHN 241153Z AUTO 00000KT 7SM FEW004 BKN029 08/08 A2999 RMK AO2 SLP160 60002 70017 T00830078 10083 20067 58000 TSNO
Loading
Personal Weather Stations






























Interactive Weather Map
Tropical Storm Tracking
New forecast layout! Learn more

10-Day Weather Forecast

Advertisements
Track Severe Weather on mobile